sensor_id;sensor_type;location;lat;lon;timestamp;temperature;humidity
20915;DHT22;10617;52.032;5.298;2023-09-18T00:03:07;19.30;99.90
20915;DHT22;10617;52.032;5.298;2023-09-18T00:07:08;19.40;99.90
20915;DHT22;10617;52.032;5.298;2023-09-18T00:11:12;19.40;99.90
20915;DHT22;10617;52.032;5.298;2023-09-18T00:15:14;19.40;99.90
20915;DHT22;10617;52.032;5.298;2023-09-18T00:19:15;19.40;99.90
20915;DHT22;10617;52.032;5.298;2023-09-18T00:23:17;19.40;99.90
20915;DHT22;10617;52.032;5.298;2023-09-18T00:27:19;19.40;99.90
20915;DHT22;10617;52.032;5.298;2023-09-18T00:31:20;19.40;99.90
20915;DHT22;10617;52.032;5.298;2023-09-18T00:35:22;19.40;99.90
20915;DHT22;10617;52.032;5.298;2023-09-18T00:39:25;19.40;99.90
20915;DHT22;10617;52.032;5.298;2023-09-18T00:43:27;19.40;99.90
20915;DHT22;10617;52.032;5.298;2023-09-18T00:47:29;19.50;99.90
20915;DHT22;10617;52.032;5.298;2023-09-18T00:51:31;19.50;99.90
20915;DHT22;10617;52.032;5.298;2023-09-18T00:55:33;19.50;99.90
20915;DHT22;10617;52.032;5.298;2023-09-18T00:59:35;19.50;99.90
20915;DHT22;10617;52.032;5.298;2023-09-18T01:03:37;19.50;99.90
20915;DHT22;10617;52.032;5.298;2023-09-18T01:07:39;19.50;99.90
20915;DHT22;10617;52.032;5.298;2023-09-18T01:15:44;19.50;99.90
20915;DHT22;10617;52.032;5.298;2023-09-18T01:19:48;19.50;99.90
20915;DHT22;10617;52.032;5.298;2023-09-18T01:23:50;19.50;99.90
20915;DHT22;10617;52.032;5.298;2023-09-18T01:27:53;19.60;99.90
20915;DHT22;10617;52.032;5.298;2023-09-18T01:31:54;19.60;99.90
20915;DHT22;10617;52.032;5.298;2023-09-18T01:35:56;19.60;99.90
20915;DHT22;10617;52.032;5.298;2023-09-18T01:39:58;19.60;99.90
20915;DHT22;10617;52.032;5.298;2023-09-18T01:44:01;19.60;99.90
20915;DHT22;10617;52.032;5.298;2023-09-18T01:48:04;19.60;99.90
20915;DHT22;10617;52.032;5.298;2023-09-18T01:52:06;19.70;99.90
20915;DHT22;10617;52.032;5.298;2023-09-18T01:56:08;19.60;99.90
20915;DHT22;10617;52.032;5.298;2023-09-18T02:00:10;19.70;99.90
20915;DHT22;10617;52.032;5.298;2023-09-18T02:04:12;19.70;99.90
20915;DHT22;10617;52.032;5.298;2023-09-18T02:08:25;19.70;99.90
20915;DHT22;10617;52.032;5.298;2023-09-18T02:12:27;19.70;99.90
20915;DHT22;10617;52.032;5.298;2023-09-18T02:16:29;19.70;99.90
20915;DHT22;10617;52.032;5.298;2023-09-18T02:20:30;19.80;99.90
20915;DHT22;10617;52.032;5.298;2023-09-18T02:24:32;19.70;99.90
20915;DHT22;10617;52.032;5.298;2023-09-18T02:28:34;19.80;99.90
20915;DHT22;10617;52.032;5.298;2023-09-18T02:32:36;19.80;99.90
20915;DHT22;10617;52.032;5.298;2023-09-18T02:36:38;19.80;99.90
20915;DHT22;10617;52.032;5.298;2023-09-18T02:40:39;19.70;99.90
20915;DHT22;10617;52.032;5.298;2023-09-18T02:44:41;19.70;99.90
20915;DHT22;10617;52.032;5.298;2023-09-18T02:48:43;19.70;99.90
20915;DHT22;10617;52.032;5.298;2023-09-18T02:52:44;19.70;99.90
20915;DHT22;10617;52.032;5.298;2023-09-18T02:56:46;19.70;99.90
20915;DHT22;10617;52.032;5.298;2023-09-18T03:00:48;19.70;99.90
20915;DHT22;10617;52.032;5.298;2023-09-18T03:04:51;19.70;99.90
20915;DHT22;10617;52.032;5.298;2023-09-18T03:08:52;19.70;99.90
20915;DHT22;10617;52.032;5.298;2023-09-18T03:12:54;19.70;99.90
20915;DHT22;10617;52.032;5.298;2023-09-18T03:16:58;19.70;99.90
20915;DHT22;10617;52.032;5.298;2023-09-18T03:21:00;19.70;99.90
20915;DHT22;10617;52.032;5.298;2023-09-18T03:25:02;19.70;99.90
20915;DHT22;10617;52.032;5.298;2023-09-18T03:29:04;19.70;99.90
20915;DHT22;10617;52.032;5.298;2023-09-18T03:33:06;19.60;99.90
20915;DHT22;10617;52.032;5.298;2023-09-18T03:37:07;19.60;99.90
20915;DHT22;10617;52.032;5.298;2023-09-18T03:41:09;19.70;99.90
20915;DHT22;10617;52.032;5.298;2023-09-18T03:45:11;19.70;99.90
20915;DHT22;10617;52.032;5.298;2023-09-18T03:49:12;19.70;99.90
20915;DHT22;10617;52.032;5.298;2023-09-18T03:53:14;19.70;99.90
20915;DHT22;10617;52.032;5.298;2023-09-18T03:57:16;19.70;99.90
20915;DHT22;10617;52.032;5.298;2023-09-18T04:01:17;19.60;99.90
20915;DHT22;10617;52.032;5.298;2023-09-18T04:05:19;19.70;99.90
20915;DHT22;10617;52.032;5.298;2023-09-18T04:09:21;19.70;99.90
20915;DHT22;10617;52.032;5.298;2023-09-18T04:13:22;19.70;99.90
20915;DHT22;10617;52.032;5.298;2023-09-18T04:17:24;19.70;99.90
20915;DHT22;10617;52.032;5.298;2023-09-18T04:21:26;19.70;99.90
20915;DHT22;10617;52.032;5.298;2023-09-18T04:25:27;19.70;99.90
20915;DHT22;10617;52.032;5.298;2023-09-18T04:29:29;19.70;99.90
20915;DHT22;10617;52.032;5.298;2023-09-18T04:33:31;19.80;99.90
20915;DHT22;10617;52.032;5.298;2023-09-18T04:37:35;19.80;99.90
20915;DHT22;10617;52.032;5.298;2023-09-18T04:41:37;19.80;99.90
20915;DHT22;10617;52.032;5.298;2023-09-18T04:45:39;19.80;99.90
20915;DHT22;10617;52.032;5.298;2023-09-18T04:49:41;19.80;99.90
20915;DHT22;10617;52.032;5.298;2023-09-18T04:53:42;19.70;99.90
20915;DHT22;10617;52.032;5.298;2023-09-18T04:57:44;19.70;99.90
20915;DHT22;10617;52.032;5.298;2023-09-18T05:01:46;19.70;99.90
20915;DHT22;10617;52.032;5.298;2023-09-18T05:05:48;19.70;99.90
20915;DHT22;10617;52.032;5.298;2023-09-18T05:09:50;19.70;99.90
20915;DHT22;10617;52.032;5.298;2023-09-18T05:13:51;19.70;99.90
20915;DHT22;10617;52.032;5.298;2023-09-18T05:17:54;19.70;99.90
20915;DHT22;10617;52.032;5.298;2023-09-18T05:21:59;19.70;99.90
20915;DHT22;10617;52.032;5.298;2023-09-18T05:26:00;19.70;99.90
20915;DHT22;10617;52.032;5.298;2023-09-18T05:30:02;19.70;99.90
20915;DHT22;10617;52.032;5.298;2023-09-18T05:34:04;19.70;99.90
20915;DHT22;10617;52.032;5.298;2023-09-18T05:38:05;19.70;99.90
20915;DHT22;10617;52.032;5.298;2023-09-18T05:42:07;19.70;99.90
20915;DHT22;10617;52.032;5.298;2023-09-18T05:46:09;19.70;99.90
20915;DHT22;10617;52.032;5.298;2023-09-18T05:50:11;19.70;99.90
20915;DHT22;10617;52.032;5.298;2023-09-18T05:54:17;19.70;99.90
20915;DHT22;10617;52.032;5.298;2023-09-18T05:58:19;19.70;99.90
20915;DHT22;10617;52.032;5.298;2023-09-18T06:02:26;19.70;99.90
20915;DHT22;10617;52.032;5.298;2023-09-18T06:06:28;19.70;99.90
20915;DHT22;10617;52.032;5.298;2023-09-18T06:10:29;19.70;99.90
20915;DHT22;10617;52.032;5.298;2023-09-18T06:14:31;19.70;99.90
20915;DHT22;10617;52.032;5.298;2023-09-18T06:18:35;19.70;99.90
20915;DHT22;10617;52.032;5.298;2023-09-18T06:22:41;19.70;99.90
20915;DHT22;10617;52.032;5.298;2023-09-18T06:26:43;19.70;99.90
20915;DHT22;10617;52.032;5.298;2023-09-18T06:30:45;19.70;99.90
20915;DHT22;10617;52.032;5.298;2023-09-18T06:34:46;19.80;99.90
20915;DHT22;10617;52.032;5.298;2023-09-18T06:38:48;19.80;99.90
20915;DHT22;10617;52.032;5.298;2023-09-18T06:42:51;19.80;99.90
20915;DHT22;10617;52.032;5.298;2023-09-18T06:46:53;19.80;99.90
20915;DHT22;10617;52.032;5.298;2023-09-18T06:50:55;19.70;99.90
20915;DHT22;10617;52.032;5.298;2023-09-18T06:54:57;19.70;99.90
20915;DHT22;10617;52.032;5.298;2023-09-18T06:58:59;19.70;99.90
20915;DHT22;10617;52.032;5.298;2023-09-18T07:03:01;19.70;99.90
20915;DHT22;10617;52.032;5.298;2023-09-18T07:07:03;19.70;99.90
20915;DHT22;10617;52.032;5.298;2023-09-18T07:11:04;19.70;99.90
20915;DHT22;10617;52.032;5.298;2023-09-18T07:15:06;19.70;99.90
20915;DHT22;10617;52.032;5.298;2023-09-18T07:19:08;19.70;99.90
20915;DHT22;10617;52.032;5.298;2023-09-18T07:23:13;19.70;99.90
20915;DHT22;10617;52.032;5.298;2023-09-18T07:27:14;19.70;99.90
20915;DHT22;10617;52.032;5.298;2023-09-18T07:31:16;19.70;99.90
20915;DHT22;10617;52.032;5.298;2023-09-18T07:35:18;19.80;99.90
20915;DHT22;10617;52.032;5.298;2023-09-18T07:39:21;19.80;99.90
20915;DHT22;10617;52.032;5.298;2023-09-18T07:43:23;19.80;99.90
20915;DHT22;10617;52.032;5.298;2023-09-18T07:47:26;19.80;99.90
20915;DHT22;10617;52.032;5.298;2023-09-18T07:51:27;19.80;99.90
20915;DHT22;10617;52.032;5.298;2023-09-18T07:55:29;19.80;99.90
20915;DHT22;10617;52.032;5.298;2023-09-18T07:59:31;19.80;99.90
20915;DHT22;10617;52.032;5.298;2023-09-18T08:03:33;19.80;99.90
20915;DHT22;10617;52.032;5.298;2023-09-18T08:07:35;19.80;99.90
20915;DHT22;10617;52.032;5.298;2023-09-18T08:11:37;19.80;99.90
20915;DHT22;10617;52.032;5.298;2023-09-18T08:15:43;19.90;99.90
20915;DHT22;10617;52.032;5.298;2023-09-18T08:19:45;19.90;99.90
20915;DHT22;10617;52.032;5.298;2023-09-18T08:23:47;19.90;99.90
20915;DHT22;10617;52.032;5.298;2023-09-18T08:27:48;19.80;99.90
20915;DHT22;10617;52.032;5.298;2023-09-18T08:31:50;19.80;99.90
20915;DHT22;10617;52.032;5.298;2023-09-18T08:35:52;19.90;99.90
20915;DHT22;10617;52.032;5.298;2023-09-18T08:39:53;19.90;99.90
20915;DHT22;10617;52.032;5.298;2023-09-18T08:43:56;19.90;99.90
20915;DHT22;10617;52.032;5.298;2023-09-18T08:48:01;19.90;99.90
20915;DHT22;10617;52.032;5.298;2023-09-18T08:52:03;20.00;99.90
20915;DHT22;10617;52.032;5.298;2023-09-18T08:56:05;20.00;99.90
20915;DHT22;10617;52.032;5.298;2023-09-18T09:00:07;20.00;99.90
20915;DHT22;10617;52.032;5.298;2023-09-18T09:04:10;20.20;99.90
20915;DHT22;10617;52.032;5.298;2023-09-18T09:08:11;20.20;99.90
20915;DHT22;10617;52.032;5.298;2023-09-18T09:12:13;20.30;99.90
20915;DHT22;10617;52.032;5.298;2023-09-18T09:16:15;20.30;99.90
20915;DHT22;10617;52.032;5.298;2023-09-18T09:20:18;20.50;99.90
20915;DHT22;10617;52.032;5.298;2023-09-18T09:24:35;20.60;99.90
20915;DHT22;10617;52.032;5.298;2023-09-18T09:28:37;20.70;99.90
20915;DHT22;10617;52.032;5.298;2023-09-18T09:32:38;20.90;99.90
20915;DHT22;10617;52.032;5.298;2023-09-18T09:36:51;21.10;99.90
20915;DHT22;10617;52.032;5.298;2023-09-18T09:40:53;21.10;99.90
20915;DHT22;10617;52.032;5.298;2023-09-18T09:45:00;21.00;99.90
20915;DHT22;10617;52.032;5.298;2023-09-18T09:49:04;20.90;99.90
20915;DHT22;10617;52.032;5.298;2023-09-18T09:53:06;20.70;99.90
20915;DHT22;10617;52.032;5.298;2023-09-18T09:57:08;20.60;99.90
20915;DHT22;10617;52.032;5.298;2023-09-18T10:01:11;20.50;99.90
20915;DHT22;10617;52.032;5.298;2023-09-18T10:05:19;20.50;99.90
20915;DHT22;10617;52.032;5.298;2023-09-18T10:09:21;20.60;99.90
20915;DHT22;10617;52.032;5.298;2023-09-18T10:13:39;20.60;99.90
20915;DHT22;10617;52.032;5.298;2023-09-18T10:17:42;20.50;99.90
20915;DHT22;10617;52.032;5.298;2023-09-18T10:21:49;20.60;99.90
20915;DHT22;10617;52.032;5.298;2023-09-18T10:25:56;20.50;99.90
20915;DHT22;10617;52.032;5.298;2023-09-18T10:29:58;20.50;99.90
20915;DHT22;10617;52.032;5.298;2023-09-18T10:34:00;20.40;99.90
20915;DHT22;10617;52.032;5.298;2023-09-18T10:38:03;20.40;99.90
20915;DHT22;10617;52.032;5.298;2023-09-18T10:42:07;20.30;99.90
20915;DHT22;10617;52.032;5.298;2023-09-18T10:46:09;20.30;99.90
20915;DHT22;10617;52.032;5.298;2023-09-18T10:50:11;20.30;99.90
20915;DHT22;10617;52.032;5.298;2023-09-18T10:54:17;20.20;99.90
20915;DHT22;10617;52.032;5.298;2023-09-18T10:58:24;20.20;99.90
20915;DHT22;10617;52.032;5.298;2023-09-18T11:02:27;20.30;99.90
20915;DHT22;10617;52.032;5.298;2023-09-18T11:06:29;20.40;99.90
20915;DHT22;10617;52.032;5.298;2023-09-18T11:10:30;20.70;99.90
20915;DHT22;10617;52.032;5.298;2023-09-18T11:18:50;20.90;99.90
20915;DHT22;10617;52.032;5.298;2023-09-18T11:26:59;20.90;99.90
20915;DHT22;10617;52.032;5.298;2023-09-18T11:31:01;21.00;99.90
20915;DHT22;10617;52.032;5.298;2023-09-18T11:35:07;21.00;99.90
20915;DHT22;10617;52.032;5.298;2023-09-18T11:39:10;21.10;99.90
20915;DHT22;10617;52.032;5.298;2023-09-18T11:43:26;21.20;99.90
20915;DHT22;10617;52.032;5.298;2023-09-18T11:47:28;21.20;99.90
20915;DHT22;10617;52.032;5.298;2023-09-18T11:51:30;21.10;99.90
20915;DHT22;10617;52.032;5.298;2023-09-18T11:55:32;21.10;99.90
20915;DHT22;10617;52.032;5.298;2023-09-18T11:59:36;21.10;99.90
20915;DHT22;10617;52.032;5.298;2023-09-18T12:03:38;21.20;99.90
20915;DHT22;10617;52.032;5.298;2023-09-18T12:07:40;21.30;99.90
20915;DHT22;10617;52.032;5.298;2023-09-18T12:11:46;21.20;99.90
20915;DHT22;10617;52.032;5.298;2023-09-18T12:15:52;21.20;99.90
20915;DHT22;10617;52.032;5.298;2023-09-18T12:19:57;21.20;99.90
20915;DHT22;10617;52.032;5.298;2023-09-18T12:23:58;21.20;99.90
20915;DHT22;10617;52.032;5.298;2023-09-18T12:28:01;21.10;99.90
20915;DHT22;10617;52.032;5.298;2023-09-18T12:32:03;21.20;99.90
20915;DHT22;10617;52.032;5.298;2023-09-18T12:36:07;21.30;99.90
20915;DHT22;10617;52.032;5.298;2023-09-18T12:44:26;21.40;99.90
20915;DHT22;10617;52.032;5.298;2023-09-18T12:48:28;21.40;99.90
20915;DHT22;10617;52.032;5.298;2023-09-18T12:52:30;21.50;99.90
20915;DHT22;10617;52.032;5.298;2023-09-18T12:56:39;21.70;99.90
20915;DHT22;10617;52.032;5.298;2023-09-18T13:00:45;21.70;99.90
20915;DHT22;10617;52.032;5.298;2023-09-18T13:04:56;21.70;99.90
20915;DHT22;10617;52.032;5.298;2023-09-18T13:09:17;21.80;99.90
20915;DHT22;10617;52.032;5.298;2023-09-18T13:13:20;21.90;99.90
20915;DHT22;10617;52.032;5.298;2023-09-18T13:17:21;22.00;99.90
20915;DHT22;10617;52.032;5.298;2023-09-18T13:21:23;22.10;99.90
20915;DHT22;10617;52.032;5.298;2023-09-18T13:25:26;22.00;99.90
20915;DHT22;10617;52.032;5.298;2023-09-18T13:29:29;21.90;99.90
20915;DHT22;10617;52.032;5.298;2023-09-18T13:33:30;21.90;99.90
20915;DHT22;10617;52.032;5.298;2023-09-18T13:37:34;21.90;99.90
20915;DHT22;10617;52.032;5.298;2023-09-18T13:41:37;22.00;99.90
20915;DHT22;10617;52.032;5.298;2023-09-18T13:45:38;22.10;99.90
20915;DHT22;10617;52.032;5.298;2023-09-18T13:49:40;22.20;99.90
20915;DHT22;10617;52.032;5.298;2023-09-18T13:53:42;22.20;99.90
20915;DHT22;10617;52.032;5.298;2023-09-18T13:57:45;22.30;99.90
20915;DHT22;10617;52.032;5.298;2023-09-18T14:01:46;22.30;99.90
20915;DHT22;10617;52.032;5.298;2023-09-18T14:05:49;22.40;99.90
20915;DHT22;10617;52.032;5.298;2023-09-18T14:09:50;22.40;99.90
20915;DHT22;10617;52.032;5.298;2023-09-18T14:13:52;22.30;99.90
20915;DHT22;10617;52.032;5.298;2023-09-18T14:17:54;22.30;99.90
20915;DHT22;10617;52.032;5.298;2023-09-18T14:21:56;22.40;99.90
20915;DHT22;10617;52.032;5.298;2023-09-18T14:25:58;22.50;99.90
20915;DHT22;10617;52.032;5.298;2023-09-18T14:30:00;22.40;99.90
20915;DHT22;10617;52.032;5.298;2023-09-18T14:34:07;22.20;99.90
20915;DHT22;10617;52.032;5.298;2023-09-18T14:38:09;22.10;99.90
20915;DHT22;10617;52.032;5.298;2023-09-18T14:42:11;21.90;99.90
20915;DHT22;10617;52.032;5.298;2023-09-18T14:46:13;21.90;99.90
20915;DHT22;10617;52.032;5.298;2023-09-18T14:50:15;21.80;99.90
20915;DHT22;10617;52.032;5.298;2023-09-18T14:54:17;21.80;99.90
20915;DHT22;10617;52.032;5.298;2023-09-18T14:58:18;21.70;99.90
20915;DHT22;10617;52.032;5.298;2023-09-18T15:02:23;21.70;99.90
20915;DHT22;10617;52.032;5.298;2023-09-18T15:06:30;21.50;99.90
20915;DHT22;10617;52.032;5.298;2023-09-18T15:10:32;20.50;99.90
20915;DHT22;10617;52.032;5.298;2023-09-18T15:14:34;19.50;99.90
20915;DHT22;10617;52.032;5.298;2023-09-18T15:18:37;18.80;99.90
20915;DHT22;10617;52.032;5.298;2023-09-18T15:22:39;18.40;99.90
20915;DHT22;10617;52.032;5.298;2023-09-18T15:26:41;18.10;99.90
20915;DHT22;10617;52.032;5.298;2023-09-18T15:30:43;17.90;99.90
20915;DHT22;10617;52.032;5.298;2023-09-18T15:34:44;17.70;99.90
20915;DHT22;10617;52.032;5.298;2023-09-18T15:38:46;17.70;99.90
20915;DHT22;10617;52.032;5.298;2023-09-18T15:42:49;17.70;99.90
20915;DHT22;10617;52.032;5.298;2023-09-18T15:46:50;17.70;99.90
20915;DHT22;10617;52.032;5.298;2023-09-18T15:50:52;17.70;99.90
20915;DHT22;10617;52.032;5.298;2023-09-18T15:54:54;17.70;99.90
20915;DHT22;10617;52.032;5.298;2023-09-18T15:58:56;17.80;99.90
20915;DHT22;10617;52.032;5.298;2023-09-18T16:03:00;17.90;99.90
20915;DHT22;10617;52.032;5.298;2023-09-18T16:07:01;18.00;99.90
20915;DHT22;10617;52.032;5.298;2023-09-18T16:11:03;18.20;99.90
20915;DHT22;10617;52.032;5.298;2023-09-18T16:15:05;18.30;99.90
20915;DHT22;10617;52.032;5.298;2023-09-18T16:19:07;18.50;99.90
20915;DHT22;10617;52.032;5.298;2023-09-18T16:23:08;18.60;99.90
20915;DHT22;10617;52.032;5.298;2023-09-18T16:27:11;18.70;99.90
20915;DHT22;10617;52.032;5.298;2023-09-18T16:31:13;18.80;99.90
20915;DHT22;10617;52.032;5.298;2023-09-18T16:35:15;18.90;99.90
20915;DHT22;10617;52.032;5.298;2023-09-18T16:39:17;19.00;99.90
20915;DHT22;10617;52.032;5.298;2023-09-18T16:43:18;19.00;99.90
20915;DHT22;10617;52.032;5.298;2023-09-18T16:47:22;19.00;99.90
20915;DHT22;10617;52.032;5.298;2023-09-18T16:51:26;19.10;99.90
20915;DHT22;10617;52.032;5.298;2023-09-18T16:55:27;19.10;99.90
20915;DHT22;10617;52.032;5.298;2023-09-18T16:59:29;19.10;99.90
20915;DHT22;10617;52.032;5.298;2023-09-18T17:03:31;19.10;99.90
20915;DHT22;10617;52.032;5.298;2023-09-18T17:07:33;19.10;99.90
20915;DHT22;10617;52.032;5.298;2023-09-18T17:11:35;19.10;99.90
20915;DHT22;10617;52.032;5.298;2023-09-18T17:15:37;19.10;99.90
20915;DHT22;10617;52.032;5.298;2023-09-18T17:19:39;19.00;99.90
20915;DHT22;10617;52.032;5.298;2023-09-18T17:23:41;19.10;99.90
20915;DHT22;10617;52.032;5.298;2023-09-18T17:27:43;19.00;99.90
20915;DHT22;10617;52.032;5.298;2023-09-18T17:31:45;19.10;99.90
20915;DHT22;10617;52.032;5.298;2023-09-18T17:35:46;19.00;99.90
20915;DHT22;10617;52.032;5.298;2023-09-18T17:39:50;19.10;99.90
20915;DHT22;10617;52.032;5.298;2023-09-18T17:43:51;19.10;99.90
20915;DHT22;10617;52.032;5.298;2023-09-18T17:47:54;19.10;99.90
20915;DHT22;10617;52.032;5.298;2023-09-18T17:51:56;19.10;99.90
20915;DHT22;10617;52.032;5.298;2023-09-18T17:55:58;19.10;99.90
20915;DHT22;10617;52.032;5.298;2023-09-18T17:59:59;19.10;99.90
20915;DHT22;10617;52.032;5.298;2023-09-18T18:04:02;19.10;99.90
20915;DHT22;10617;52.032;5.298;2023-09-18T18:08:04;19.10;99.90
20915;DHT22;10617;52.032;5.298;2023-09-18T18:12:06;19.10;99.90
20915;DHT22;10617;52.032;5.298;2023-09-18T18:16:07;19.00;99.90
20915;DHT22;10617;52.032;5.298;2023-09-18T18:20:09;19.10;99.90
20915;DHT22;10617;52.032;5.298;2023-09-18T18:24:11;19.00;99.90
20915;DHT22;10617;52.032;5.298;2023-09-18T18:28:13;19.10;99.90
20915;DHT22;10617;52.032;5.298;2023-09-18T18:32:14;19.10;99.90
20915;DHT22;10617;52.032;5.298;2023-09-18T18:36:16;19.00;99.90
20915;DHT22;10617;52.032;5.298;2023-09-18T18:40:17;19.00;99.90
20915;DHT22;10617;52.032;5.298;2023-09-18T18:44:21;19.00;99.90
20915;DHT22;10617;52.032;5.298;2023-09-18T18:48:23;18.90;99.90
20915;DHT22;10617;52.032;5.298;2023-09-18T18:52:25;18.90;99.90
20915;DHT22;10617;52.032;5.298;2023-09-18T18:56:26;18.90;99.90
20915;DHT22;10617;52.032;5.298;2023-09-18T19:00:28;18.90;99.90
20915;DHT22;10617;52.032;5.298;2023-09-18T19:04:30;19.00;99.90
20915;DHT22;10617;52.032;5.298;2023-09-18T19:08:33;18.90;99.90
20915;DHT22;10617;52.032;5.298;2023-09-18T19:12:34;18.90;99.90
20915;DHT22;10617;52.032;5.298;2023-09-18T19:16:39;18.80;99.90
20915;DHT22;10617;52.032;5.298;2023-09-18T19:20:41;18.80;99.90
20915;DHT22;10617;52.032;5.298;2023-09-18T19:24:43;18.80;99.90
20915;DHT22;10617;52.032;5.298;2023-09-18T19:28:45;18.70;99.90
20915;DHT22;10617;52.032;5.298;2023-09-18T19:32:46;18.70;99.90
20915;DHT22;10617;52.032;5.298;2023-09-18T19:36:48;18.70;99.90
20915;DHT22;10617;52.032;5.298;2023-09-18T19:41:07;18.60;99.90
20915;DHT22;10617;52.032;5.298;2023-09-18T19:45:09;18.50;99.90
20915;DHT22;10617;52.032;5.298;2023-09-18T19:49:12;18.40;99.90
20915;DHT22;10617;52.032;5.298;2023-09-18T19:53:13;18.40;99.90
20915;DHT22;10617;52.032;5.298;2023-09-18T19:57:15;18.30;99.90
20915;DHT22;10617;52.032;5.298;2023-09-18T20:01:17;18.30;99.90
20915;DHT22;10617;52.032;5.298;2023-09-18T20:05:19;18.30;99.90
20915;DHT22;10617;52.032;5.298;2023-09-18T20:09:21;18.30;99.90
20915;DHT22;10617;52.032;5.298;2023-09-18T20:13:24;18.30;99.90
20915;DHT22;10617;52.032;5.298;2023-09-18T20:21:48;18.10;99.90
20915;DHT22;10617;52.032;5.298;2023-09-18T20:25:51;17.90;99.90
20915;DHT22;10617;52.032;5.298;2023-09-18T20:29:52;17.80;99.90
20915;DHT22;10617;52.032;5.298;2023-09-18T20:33:54;17.70;99.90
20915;DHT22;10617;52.032;5.298;2023-09-18T20:37:56;17.70;99.90
20915;DHT22;10617;52.032;5.298;2023-09-18T20:41:57;17.70;99.90
20915;DHT22;10617;52.032;5.298;2023-09-18T20:45:59;17.80;99.90
20915;DHT22;10617;52.032;5.298;2023-09-18T20:50:01;17.80;99.90
20915;DHT22;10617;52.032;5.298;2023-09-18T20:54:04;17.80;99.90
20915;DHT22;10617;52.032;5.298;2023-09-18T20:58:06;17.70;99.90
20915;DHT22;10617;52.032;5.298;2023-09-18T21:02:07;17.70;99.90
20915;DHT22;10617;52.032;5.298;2023-09-18T21:06:12;17.70;99.90
20915;DHT22;10617;52.032;5.298;2023-09-18T21:10:13;17.70;99.90
20915;DHT22;10617;52.032;5.298;2023-09-18T21:14:15;17.60;99.90
20915;DHT22;10617;52.032;5.298;2023-09-18T21:18:17;17.60;99.90
20915;DHT22;10617;52.032;5.298;2023-09-18T21:22:19;17.60;99.90
20915;DHT22;10617;52.032;5.298;2023-09-18T21:26:21;17.50;99.90
20915;DHT22;10617;52.032;5.298;2023-09-18T21:30:23;17.50;99.90
20915;DHT22;10617;52.032;5.298;2023-09-18T21:34:24;17.50;99.90
20915;DHT22;10617;52.032;5.298;2023-09-18T21:38:26;17.40;99.90
20915;DHT22;10617;52.032;5.298;2023-09-18T21:42:29;17.40;99.90
20915;DHT22;10617;52.032;5.298;2023-09-18T21:46:30;17.30;99.90
20915;DHT22;10617;52.032;5.298;2023-09-18T21:50:34;17.20;99.90
20915;DHT22;10617;52.032;5.298;2023-09-18T21:54:36;17.20;99.90
20915;DHT22;10617;52.032;5.298;2023-09-18T21:58:38;17.20;99.90
20915;DHT22;10617;52.032;5.298;2023-09-18T22:02:40;17.20;99.90
20915;DHT22;10617;52.032;5.298;2023-09-18T22:06:41;17.00;99.90
20915;DHT22;10617;52.032;5.298;2023-09-18T22:10:43;16.90;99.90
20915;DHT22;10617;52.032;5.298;2023-09-18T22:14:45;16.80;99.90
20915;DHT22;10617;52.032;5.298;2023-09-18T22:18:49;16.60;99.90
20915;DHT22;10617;52.032;5.298;2023-09-18T22:22:51;16.50;99.90
20915;DHT22;10617;52.032;5.298;2023-09-18T22:26:53;16.40;99.90
20915;DHT22;10617;52.032;5.298;2023-09-18T22:30:55;16.30;99.90
20915;DHT22;10617;52.032;5.298;2023-09-18T22:34:57;16.20;99.90
20915;DHT22;10617;52.032;5.298;2023-09-18T22:39:02;16.20;99.90
20915;DHT22;10617;52.032;5.298;2023-09-18T22:56:13;16.10;99.90
20915;DHT22;10617;52.032;5.298;2023-09-18T23:00:19;16.10;99.90
20915;DHT22;10617;52.032;5.298;2023-09-18T23:04:21;16.00;99.90
20915;DHT22;10617;52.032;5.298;2023-09-18T23:08:23;15.90;99.90
20915;DHT22;10617;52.032;5.298;2023-09-18T23:12:25;15.90;99.90
20915;DHT22;10617;52.032;5.298;2023-09-18T23:16:30;15.80;99.90
20915;DHT22;10617;52.032;5.298;2023-09-18T23:20:32;15.80;99.90
20915;DHT22;10617;52.032;5.298;2023-09-18T23:24:34;15.70;99.90
20915;DHT22;10617;52.032;5.298;2023-09-18T23:28:36;15.70;99.90
20915;DHT22;10617;52.032;5.298;2023-09-18T23:32:40;15.60;99.90
20915;DHT22;10617;52.032;5.298;2023-09-18T23:36:45;15.60;99.90
20915;DHT22;10617;52.032;5.298;2023-09-18T23:40:49;15.50;99.90
20915;DHT22;10617;52.032;5.298;2023-09-18T23:44:50;15.50;99.90
20915;DHT22;10617;52.032;5.298;2023-09-18T23:48:52;15.50;99.90
20915;DHT22;10617;52.032;5.298;2023-09-18T23:52:55;15.40;99.90
20915;DHT22;10617;52.032;5.298;2023-09-18T23:57:01;15.40;99.90
